sensor_id;sensor_type;location;lat;lon;timestamp;pressure;altitude;pressure_sealevel;temperature;humidity
55301;BME280;58302;51.446;-2.000;2023-04-02T00:04:02;100960.38;;;7.21;100.00
55301;BME280;58302;51.446;-2.000;2023-04-02T00:06:35;100948.94;;;7.19;100.00
55301;BME280;58302;51.446;-2.000;2023-04-02T00:11:44;100967.41;;;7.22;100.00
55301;BME280;58302;51.446;-2.000;2023-04-02T00:14:31;100975.97;;;7.19;100.00
55301;BME280;58302;51.446;-2.000;2023-04-02T00:17:00;100977.41;;;7.21;100.00
55301;BME280;58302;51.446;-2.000;2023-04-02T00:19:47;100975.78;;;7.20;100.00
55301;BME280;58302;51.446;-2.000;2023-04-02T00:22:21;100974.34;;;7.18;100.00
55301;BME280;58302;51.446;-2.000;2023-04-02T00:24:52;100980.31;;;7.20;100.00
55301;BME280;58302;51.446;-2.000;2023-04-02T00:27:19;100982.44;;;7.18;100.00
55301;BME280;58302;51.446;-2.000;2023-04-02T00:29:47;100984.91;;;7.19;100.00
55301;BME280;58302;51.446;-2.000;2023-04-02T00:32:33;100997.41;;;7.20;100.00
55301;BME280;58302;51.446;-2.000;2023-04-02T00:35:01;100999.25;;;7.20;100.00
55301;BME280;58302;51.446;-2.000;2023-04-02T00:37:30;100999.25;;;7.20;100.00
55301;BME280;58302;51.446;-2.000;2023-04-02T00:40:18;100999.25;;;7.20;100.00
55301;BME280;58302;51.446;-2.000;2023-04-02T00:42:45;101005.72;;;7.19;100.00
55301;BME280;58302;51.446;-2.000;2023-04-02T00:45:18;101006.31;;;7.21;100.00
55301;BME280;58302;51.446;-2.000;2023-04-02T00:47:47;101000.09;;;7.20;100.00
55301;BME280;58302;51.446;-2.000;2023-04-02T00:52:43;101006.53;;;7.19;100.00
55301;BME280;58302;51.446;-2.000;2023-04-02T00:55:33;101016.31;;;7.20;100.00
55301;BME280;58302;51.446;-2.000;2023-04-02T00:58:01;101025.25;;;7.21;100.00
55301;BME280;58302;51.446;-2.000;2023-04-02T01:00:31;101028.16;;;7.19;100.00
55301;BME280;58302;51.446;-2.000;2023-04-02T01:14:05;101044.63;;;7.18;100.00
55301;BME280;58302;51.446;-2.000;2023-04-02T01:22:12;101037.41;;;7.11;100.00
55301;BME280;58302;51.446;-2.000;2023-04-02T01:24:47;101052.13;;;7.16;100.00
55301;BME280;58302;51.446;-2.000;2023-04-02T01:27:19;101048.59;;;7.15;100.00
55301;BME280;58302;51.446;-2.000;2023-04-02T01:29:58;101047.78;;;7.15;100.00
55301;BME280;58302;51.446;-2.000;2023-04-02T01:32:28;101049.06;;;7.12;100.00
55301;BME280;58302;51.446;-2.000;2023-04-02T01:34:55;101052.56;;;7.12;100.00
55301;BME280;58302;51.446;-2.000;2023-04-02T01:42:45;101061.06;;;7.16;100.00
55301;BME280;58302;51.446;-2.000;2023-04-02T01:45:17;101062.13;;;7.15;100.00
55301;BME280;58302;51.446;-2.000;2023-04-02T01:47:44;101063.53;;;7.18;100.00
55301;BME280;58302;51.446;-2.000;2023-04-02T01:50:28;101061.06;;;7.16;100.00
55301;BME280;58302;51.446;-2.000;2023-04-02T01:53:00;101064.59;;;7.17;100.00
55301;BME280;58302;51.446;-2.000;2023-04-02T01:56:02;101067.28;;;7.17;100.00
55301;BME280;58302;51.446;-2.000;2023-04-02T01:58:30;101068.34;;;7.16;100.00
55301;BME280;58302;51.446;-2.000;2023-04-02T02:01:05;101074.34;;;7.18;100.00
55301;BME280;58302;51.446;-2.000;2023-04-02T02:03:42;101076.81;;;7.19;100.00
55301;BME280;58302;51.446;-2.000;2023-04-02T02:06:14;101082.22;;;7.19;100.00
55301;BME280;58302;51.446;-2.000;2023-04-02T02:08:56;101078.50;;;7.20;100.00
55301;BME280;58302;51.446;-2.000;2023-04-02T02:11:26;101084.72;;;7.21;100.00
55301;BME280;58302;51.446;-2.000;2023-04-02T02:14:04;101086.59;;;7.20;100.00
55301;BME280;58302;51.446;-2.000;2023-04-02T02:16:33;101089.50;;;7.19;100.00
55301;BME280;58302;51.446;-2.000;2023-04-02T02:19:15;101091.84;;;7.15;100.00
55301;BME280;58302;51.446;-2.000;2023-04-02T02:21:46;101101.47;;;7.11;100.00
55301;BME280;58302;51.446;-2.000;2023-04-02T02:24:28;101113.34;;;7.10;100.00
55301;BME280;58302;51.446;-2.000;2023-04-02T02:30:05;101114.84;;;6.88;100.00
55301;BME280;58302;51.446;-2.000;2023-04-02T02:32:47;101117.47;;;6.76;100.00
55301;BME280;58302;51.446;-2.000;2023-04-02T02:35:18;101119.38;;;6.69;100.00
55301;BME280;58302;51.446;-2.000;2023-04-02T02:37:51;101121.91;;;6.64;100.00
55301;BME280;58302;51.446;-2.000;2023-04-02T02:40:25;101118.22;;;6.58;100.00
55301;BME280;58302;51.446;-2.000;2023-04-02T02:42:58;101130.31;;;6.55;100.00
55301;BME280;58302;51.446;-2.000;2023-04-02T02:45:30;101127.22;;;6.52;100.00
55301;BME280;58302;51.446;-2.000;2023-04-02T02:47:58;101124.75;;;6.50;100.00
55301;BME280;58302;51.446;-2.000;2023-04-02T02:50:28;101138.66;;;6.54;100.00
55301;BME280;58302;51.446;-2.000;2023-04-02T02:52:58;101136.59;;;6.49;100.00
55301;BME280;58302;51.446;-2.000;2023-04-02T02:55:30;101135.78;;;6.49;100.00
55301;BME280;58302;51.446;-2.000;2023-04-02T02:58:05;101133.75;;;6.44;100.00
55301;BME280;58302;51.446;-2.000;2023-04-02T03:00:34;101126.25;;;6.46;100.00
55301;BME280;58302;51.446;-2.000;2023-04-02T03:03:05;101126.91;;;6.42;100.00
55301;BME280;58302;51.446;-2.000;2023-04-02T03:05:34;101136.88;;;6.41;100.00
55301;BME280;58302;51.446;-2.000;2023-04-02T03:08:02;101138.97;;;6.39;100.00
55301;BME280;58302;51.446;-2.000;2023-04-02T03:10:37;101151.19;;;6.42;100.00
55301;BME280;58302;51.446;-2.000;2023-04-02T03:13:17;101148.50;;;6.42;100.00
55301;BME280;58302;51.446;-2.000;2023-04-02T03:18:30;101153.31;;;6.40;100.00
55301;BME280;58302;51.446;-2.000;2023-04-02T03:21:04;101153.31;;;6.40;100.00
55301;BME280;58302;51.446;-2.000;2023-04-02T03:23:39;101158.94;;;6.38;100.00
55301;BME280;58302;51.446;-2.000;2023-04-02T03:26:11;101154.56;;;6.37;100.00
55301;BME280;58302;51.446;-2.000;2023-04-02T03:28:46;101156.00;;;6.40;100.00
55301;BME280;58302;51.446;-2.000;2023-04-02T03:31:21;101158.47;;;6.41;100.00
55301;BME280;58302;51.446;-2.000;2023-04-02T03:33:56;101154.34;;;6.39;100.00
55301;BME280;58302;51.446;-2.000;2023-04-02T03:36:34;101158.47;;;6.41;100.00
55301;BME280;58302;51.446;-2.000;2023-04-02T03:39:25;101172.78;;;6.42;100.00
55301;BME280;58302;51.446;-2.000;2023-04-02T03:42:08;101173.84;;;6.41;100.00
55301;BME280;58302;51.446;-2.000;2023-04-02T03:45:02;101182.78;;;6.41;100.00
55301;BME280;58302;51.446;-2.000;2023-04-02T03:47:36;101184.88;;;6.39;100.00
55301;BME280;58302;51.446;-2.000;2023-04-02T03:50:16;101190.63;;;6.43;100.00
55301;BME280;58302;51.446;-2.000;2023-04-02T03:52:44;101203.72;;;6.46;100.00
55301;BME280;58302;51.446;-2.000;2023-04-02T03:55:18;101189.81;;;6.42;100.00
55301;BME280;58302;51.446;-2.000;2023-04-02T04:00:23;101194.78;;;6.45;100.00
55301;BME280;58302;51.446;-2.000;2023-04-02T04:02:54;101206.81;;;6.49;100.00
55301;BME280;58302;51.446;-2.000;2023-04-02T04:05:50;101208.69;;;6.49;100.00
55301;BME280;58302;51.446;-2.000;2023-04-02T04:08:22;101211.16;;;6.50;100.00
55301;BME280;58302;51.446;-2.000;2023-04-02T04:11:02;101219.66;;;6.54;100.00
55301;BME280;58302;51.446;-2.000;2023-04-02T04:13:55;101217.97;;;6.53;100.00
55301;BME280;58302;51.446;-2.000;2023-04-02T04:16:28;101209.06;;;6.52;100.00
55301;BME280;58302;51.446;-2.000;2023-04-02T04:19:03;101210.72;;;6.53;100.00
55301;BME280;58302;51.446;-2.000;2023-04-02T04:21:33;101216.72;;;6.55;100.00
55301;BME280;58302;51.446;-2.000;2023-04-02T04:24:11;101222.72;;;6.57;100.00
55301;BME280;58302;51.446;-2.000;2023-04-02T04:26:53;101227.31;;;6.57;100.00
55301;BME280;58302;51.446;-2.000;2023-04-02T04:29:57;101219.66;;;6.54;100.00
55301;BME280;58302;51.446;-2.000;2023-04-02T04:32:31;101228.41;;;6.49;100.00
55301;BME280;58302;51.446;-2.000;2023-04-02T04:35:23;101235.94;;;6.41;100.00
55301;BME280;58302;51.446;-2.000;2023-04-02T04:37:57;101235.34;;;6.39;100.00
55301;BME280;58302;51.446;-2.000;2023-04-02T04:40:28;101235.16;;;6.33;100.00
55301;BME280;58302;51.446;-2.000;2023-04-02T04:43:00;101242.41;;;6.40;100.00
55301;BME280;58302;51.446;-2.000;2023-04-02T04:48:09;101240.53;;;6.40;100.00
55301;BME280;58302;51.446;-2.000;2023-04-02T04:50:58;101246.31;;;6.44;100.00
55301;BME280;58302;51.446;-2.000;2023-04-02T04:53:28;101241.75;;;6.44;100.00
55301;BME280;58302;51.446;-2.000;2023-04-02T04:55:56;101255.63;;;6.48;100.00
55301;BME280;58302;51.446;-2.000;2023-04-02T04:58:41;101261.66;;;6.50;100.00
55301;BME280;58302;51.446;-2.000;2023-04-02T05:02:03;101270.34;;;6.52;100.00
55301;BME280;58302;51.446;-2.000;2023-04-02T05:04:24;101266.81;;;6.51;100.00
55301;BME280;58302;51.446;-2.000;2023-04-02T05:06:55;101270.34;;;6.52;100.00
55301;BME280;58302;51.446;-2.000;2023-04-02T05:09:30;101279.28;;;6.52;100.00
55301;BME280;58302;51.446;-2.000;2023-04-02T05:12:05;101286.31;;;6.53;100.00
55301;BME280;58302;51.446;-2.000;2023-04-02T05:14:52;101292.56;;;6.54;100.00
55301;BME280;58302;51.446;-2.000;2023-04-02T05:17:27;101288.59;;;6.56;100.00
55301;BME280;58302;51.446;-2.000;2023-04-02T05:19:59;101296.69;;;6.56;100.00
55301;BME280;58302;51.446;-2.000;2023-04-02T05:22:49;101306.44;;;6.57;100.00
55301;BME280;58302;51.446;-2.000;2023-04-02T05:25:30;101311.25;;;6.55;100.00
55301;BME280;58302;51.446;-2.000;2023-04-02T05:28:40;101317.47;;;6.56;100.00
55301;BME280;58302;51.446;-2.000;2023-04-02T05:31:56;101315.00;;;6.54;100.00
55301;BME280;58302;51.446;-2.000;2023-04-02T05:34:01;101319.34;;;6.55;100.00
55301;BME280;58302;51.446;-2.000;2023-04-02T05:36:28;101322.44;;;6.59;100.00
55301;BME280;58302;51.446;-2.000;2023-04-02T05:38:56;101330.53;;;6.59;100.00
55301;BME280;58302;51.446;-2.000;2023-04-02T05:41:31;101342.78;;;6.62;100.00
55301;BME280;58302;51.446;-2.000;2023-04-02T05:44:07;101342.19;;;6.59;100.00
55301;BME280;58302;51.446;-2.000;2023-04-02T05:46:44;101349.00;;;6.62;100.00
55301;BME280;58302;51.446;-2.000;2023-04-02T05:49:19;101351.53;;;6.57;100.00
55301;BME280;58302;51.446;-2.000;2023-04-02T05:51:51;101352.19;;;6.52;100.00
55301;BME280;58302;51.446;-2.000;2023-04-02T05:54:42;101361.09;;;6.53;100.00
55301;BME280;58302;51.446;-2.000;2023-04-02T05:57:14;101359.69;;;6.50;100.00
55301;BME280;58302;51.446;-2.000;2023-04-02T05:59:53;101383.13;;;6.56;100.00
55301;BME280;58302;51.446;-2.000;2023-04-02T06:02:51;101374.59;;;6.59;100.00
55301;BME280;58302;51.446;-2.000;2023-04-02T06:05:28;101379.78;;;6.61;100.00
55301;BME280;58302;51.446;-2.000;2023-04-02T06:08:02;101379.31;;;6.64;100.00
55301;BME280;58302;51.446;-2.000;2023-04-02T06:10:33;101371.84;;;6.66;100.00
55301;BME280;58302;51.446;-2.000;2023-04-02T06:13:06;101371.03;;;6.66;100.00
55301;BME280;58302;51.446;-2.000;2023-04-02T06:15:34;101382.00;;;6.71;100.00
55301;BME280;58302;51.446;-2.000;2023-04-02T06:18:15;101373.91;;;6.71;100.00
55301;BME280;58302;51.446;-2.000;2023-04-02T06:20:43;101383.22;;;6.75;100.00
55301;BME280;58302;51.446;-2.000;2023-04-02T06:23:22;101387.78;;;6.74;100.00
55301;BME280;58302;51.446;-2.000;2023-04-02T06:26:35;101399.22;;;6.76;100.00
55301;BME280;58302;51.446;-2.000;2023-04-02T06:31:47;101407.09;;;6.78;100.00
55301;BME280;58302;51.446;-2.000;2023-04-02T06:34:17;101409.81;;;6.78;100.00
55301;BME280;58302;51.446;-2.000;2023-04-02T06:36:44;101420.63;;;6.78;100.00
55301;BME280;58302;51.446;-2.000;2023-04-02T06:39:17;101420.63;;;6.78;100.00
55301;BME280;58302;51.446;-2.000;2023-04-02T06:41:44;101419.56;;;6.79;100.00
55301;BME280;58302;51.446;-2.000;2023-04-02T06:44:16;101430.16;;;6.80;100.00
55301;BME280;58302;51.446;-2.000;2023-04-02T06:46:47;101435.78;;;6.79;100.00
55301;BME280;58302;51.446;-2.000;2023-04-02T06:49:22;101441.63;;;6.76;100.00
55301;BME280;58302;51.446;-2.000;2023-04-02T06:51:53;101444.53;;;6.74;100.00
55301;BME280;58302;51.446;-2.000;2023-04-02T06:54:20;101448.28;;;6.73;100.00
55301;BME280;58302;51.446;-2.000;2023-04-02T06:56:50;101452.63;;;6.74;100.00
55301;BME280;58302;51.446;-2.000;2023-04-02T06:59:18;101455.56;;;6.73;100.00
55301;BME280;58302;51.446;-2.000;2023-04-02T07:01:51;101453.91;;;6.72;100.00
55301;BME280;58302;51.446;-2.000;2023-04-02T07:04:20;101456.97;;;6.75;100.00
55301;BME280;58302;51.446;-2.000;2023-04-02T07:06:46;101465.50;;;6.79;100.00
55301;BME280;58302;51.446;-2.000;2023-04-02T07:09:12;101477.94;;;6.80;100.00
55301;BME280;58302;51.446;-2.000;2023-04-02T07:11:38;101482.56;;;6.73;100.00
55301;BME280;58302;51.446;-2.000;2023-04-02T07:14:05;101483.47;;;6.60;100.00
55301;BME280;58302;51.446;-2.000;2023-04-02T07:16:32;101488.25;;;6.51;100.00
55301;BME280;58302;51.446;-2.000;2023-04-02T07:18:59;101480.81;;;6.40;100.00
55301;BME280;58302;51.446;-2.000;2023-04-02T07:21:26;101489.75;;;6.34;100.00
55301;BME280;58302;51.446;-2.000;2023-04-02T07:23:52;101496.81;;;6.35;100.00
55301;BME280;58302;51.446;-2.000;2023-04-02T07:26:21;101500.13;;;6.30;100.00
55301;BME280;58302;51.446;-2.000;2023-04-02T07:28:48;101502.84;;;6.30;100.00
55301;BME280;58302;51.446;-2.000;2023-04-02T07:31:16;101503.28;;;6.27;100.00
55301;BME280;58302;51.446;-2.000;2023-04-02T07:33:43;101504.72;;;6.30;100.00
55301;BME280;58302;51.446;-2.000;2023-04-02T07:36:18;101501.81;;;6.38;100.00
55301;BME280;58302;51.446;-2.000;2023-04-02T07:38:44;101502.63;;;6.39;100.00
55301;BME280;58302;51.446;-2.000;2023-04-02T07:41:11;101502.19;;;6.42;100.00
55301;BME280;58302;51.446;-2.000;2023-04-02T07:43:38;101509.25;;;6.49;100.00
55301;BME280;58302;51.446;-2.000;2023-04-02T07:46:04;101516.47;;;6.62;100.00
55301;BME280;58302;51.446;-2.000;2023-04-02T07:48:31;101518.28;;;6.81;100.00
55301;BME280;58302;51.446;-2.000;2023-04-02T07:50:58;101532.53;;;7.02;100.00
55301;BME280;58302;51.446;-2.000;2023-04-02T07:53:32;101525.97;;;7.23;100.00
55301;BME280;58302;51.446;-2.000;2023-04-02T07:56:00;101532.69;;;7.45;100.00
55301;BME280;58302;51.446;-2.000;2023-04-02T07:58:28;101536.47;;;7.44;100.00
55301;BME280;58302;51.446;-2.000;2023-04-02T08:00:54;101533.56;;;7.39;100.00
55301;BME280;58302;51.446;-2.000;2023-04-02T08:03:20;101538.75;;;7.47;100.00
55301;BME280;58302;51.446;-2.000;2023-04-02T08:05:54;101532.47;;;7.47;100.00
55301;BME280;58302;51.446;-2.000;2023-04-02T08:08:21;101539.34;;;7.49;100.00
55301;BME280;58302;51.446;-2.000;2023-04-02T08:10:47;101543.69;;;7.50;100.00
55301;BME280;58302;51.446;-2.000;2023-04-02T08:13:14;101551.81;;;7.50;100.00
55301;BME280;58302;51.446;-2.000;2023-04-02T08:15:41;101552.47;;;7.46;100.00
55301;BME280;58302;51.446;-2.000;2023-04-02T08:18:08;101554.16;;;7.40;100.00
55301;BME280;58302;51.446;-2.000;2023-04-02T08:20:34;101543.03;;;7.23;100.00
55301;BME280;58302;51.446;-2.000;2023-04-02T08:23:00;101555.56;;;7.11;100.00
55301;BME280;58302;51.446;-2.000;2023-04-02T08:25:26;101558.09;;;7.06;100.00
55301;BME280;58302;51.446;-2.000;2023-04-02T08:27:52;101571.84;;;6.98;100.00
55301;BME280;58302;51.446;-2.000;2023-04-02T08:30:18;101573.09;;;6.95;100.00
55301;BME280;58302;51.446;-2.000;2023-04-02T08:32:44;101586.00;;;6.86;100.00
55301;BME280;58302;51.446;-2.000;2023-04-02T08:35:14;101594.31;;;6.85;100.00
55301;BME280;58302;51.446;-2.000;2023-04-02T08:37:41;101602.81;;;6.95;100.00
55301;BME280;58302;51.446;-2.000;2023-04-02T08:40:17;101595.75;;;6.94;100.00
55301;BME280;58302;51.446;-2.000;2023-04-02T08:46:04;101598.84;;;7.04;100.00
55301;BME280;58302;51.446;-2.000;2023-04-02T08:48:34;101596.53;;;7.08;100.00
55301;BME280;58302;51.446;-2.000;2023-04-02T08:51:02;101592.34;;;7.12;100.00
55301;BME280;58302;51.446;-2.000;2023-04-02T08:53:35;101599.84;;;7.17;100.00
55301;BME280;58302;51.446;-2.000;2023-04-02T08:56:14;101600.41;;;7.32;100.00
55301;BME280;58302;51.446;-2.000;2023-04-02T08:58:47;101598.34;;;7.65;100.00
55301;BME280;58302;51.446;-2.000;2023-04-02T09:04:17;101603.84;;;8.34;100.00
55301;BME280;58302;51.446;-2.000;2023-04-02T09:06:46;101607.25;;;8.73;100.00
55301;BME280;58302;51.446;-2.000;2023-04-02T09:09:14;101604.81;;;9.56;100.00
55301;BME280;58302;51.446;-2.000;2023-04-02T09:12:02;101605.38;;;10.77;100.00
55301;BME280;58302;51.446;-2.000;2023-04-02T09:14:34;101608.38;;;11.44;100.00
55301;BME280;58302;51.446;-2.000;2023-04-02T09:17:21;101622.56;;;11.06;100.00
55301;BME280;58302;51.446;-2.000;2023-04-02T09:19:56;101639.75;;;10.48;100.00
55301;BME280;58302;51.446;-2.000;2023-04-02T09:22:26;101642.47;;;10.48;100.00
55301;BME280;58302;51.446;-2.000;2023-04-02T09:24:58;101637.16;;;10.88;100.00
55301;BME280;58302;51.446;-2.000;2023-04-02T09:27:29;101646.34;;;11.11;100.00
55301;BME280;58302;51.446;-2.000;2023-04-02T09:29:57;101656.19;;;10.53;100.00
55301;BME280;58302;51.446;-2.000;2023-04-02T09:35:27;101659.72;;;10.42;100.00
55301;BME280;58302;51.446;-2.000;2023-04-02T09:38:21;101673.44;;;10.47;100.00
55301;BME280;58302;51.446;-2.000;2023-04-02T09:40:57;101689.41;;;10.13;100.00
55301;BME280;58302;51.446;-2.000;2023-04-02T09:43:26;101687.53;;;9.84;100.00
55301;BME280;58302;51.446;-2.000;2023-04-02T09:45:58;101692.25;;;9.58;100.00
55301;BME280;58302;51.446;-2.000;2023-04-02T09:51:05;101681.47;;;9.15;100.00
55301;BME280;58302;51.446;-2.000;2023-04-02T09:53:40;101687.72;;;9.15;100.00
55301;BME280;58302;51.446;-2.000;2023-04-02T09:56:15;101697.06;;;9.01;100.00
55301;BME280;58302;51.446;-2.000;2023-04-02T09:58:43;101705.28;;;8.69;100.00
55301;BME280;58302;51.446;-2.000;2023-04-02T10:01:29;101711.78;;;8.37;100.00
55301;BME280;58302;51.446;-2.000;2023-04-02T10:03:55;101715.19;;;8.26;100.00
55301;BME280;58302;51.446;-2.000;2023-04-02T10:06:24;101724.63;;;8.48;100.00
55301;BME280;58302;51.446;-2.000;2023-04-02T10:08:52;101732.88;;;8.85;100.00
55301;BME280;58302;51.446;-2.000;2023-04-02T10:11:31;101724.28;;;9.31;100.00
55301;BME280;58302;51.446;-2.000;2023-04-02T10:14:01;101730.59;;;9.43;100.00
55301;BME280;58302;51.446;-2.000;2023-04-02T10:16:58;101743.47;;;9.66;100.00
55301;BME280;58302;51.446;-2.000;2023-04-02T10:21:55;101747.47;;;9.27;100.00
55301;BME280;58302;51.446;-2.000;2023-04-02T10:24:26;101746.38;;;9.35;100.00
55301;BME280;58302;51.446;-2.000;2023-04-02T10:32:39;101760.28;;;9.20;100.00
55301;BME280;58302;51.446;-2.000;2023-04-02T10:38:03;101753.72;;;9.83;100.00
55301;BME280;58302;51.446;-2.000;2023-04-02T10:40:47;101752.25;;;10.47;100.00
55301;BME280;58302;51.446;-2.000;2023-04-02T10:46:21;101774.16;;;10.75;100.00
55301;BME280;58302;51.446;-2.000;2023-04-02T10:49:04;101781.50;;;10.75;100.00
55301;BME280;58302;51.446;-2.000;2023-04-02T10:51:43;101791.09;;;10.36;100.00
55301;BME280;58302;51.446;-2.000;2023-04-02T10:54:38;101794.59;;;10.06;100.00
55301;BME280;58302;51.446;-2.000;2023-04-02T11:00:06;101799.97;;;9.94;100.00
55301;BME280;58302;51.446;-2.000;2023-04-02T11:06:01;101799.13;;;9.94;100.00
55301;BME280;58302;51.446;-2.000;2023-04-02T11:08:26;101811.34;;;9.66;100.00
55301;BME280;58302;51.446;-2.000;2023-04-02T11:11:04;101808.59;;;9.30;100.00
55301;BME280;58302;51.446;-2.000;2023-04-02T11:14:12;101813.31;;;9.16;100.00
55301;BME280;58302;51.446;-2.000;2023-04-02T11:16:40;101821.53;;;9.53;100.00
55301;BME280;58302;51.446;-2.000;2023-04-02T11:22:33;101819.72;;;9.65;100.00
55301;BME280;58302;51.446;-2.000;2023-04-02T11:24:49;101828.44;;;9.48;100.00
55301;BME280;58302;51.446;-2.000;2023-04-02T11:27:29;101821.53;;;9.28;100.00
55301;BME280;58302;51.446;-2.000;2023-04-02T11:32:40;101831.06;;;9.12;100.00
55301;BME280;58302;51.446;-2.000;2023-04-02T11:35:43;101841.56;;;9.08;100.00
55301;BME280;58302;51.446;-2.000;2023-04-02T11:40:47;101850.13;;;9.30;100.00
55301;BME280;58302;51.446;-2.000;2023-04-02T11:46:42;101847.78;;;9.95;100.00
55301;BME280;58302;51.446;-2.000;2023-04-02T11:48:48;101851.03;;;10.22;100.00
55301;BME280;58302;51.446;-2.000;2023-04-02T11:53:48;101858.00;;;10.78;100.00
55301;BME280;58302;51.446;-2.000;2023-04-02T11:56:19;101854.69;;;10.76;100.00
55301;BME280;58302;51.446;-2.000;2023-04-02T12:01:34;101857.97;;;11.20;100.00
55301;BME280;58302;51.446;-2.000;2023-04-02T12:09:30;101865.97;;;10.13;100.00
55301;BME280;58302;51.446;-2.000;2023-04-02T12:12:26;101878.72;;;10.13;100.00
55301;BME280;58302;51.446;-2.000;2023-04-02T12:14:54;101864.00;;;10.20;100.00
55301;BME280;58302;51.446;-2.000;2023-04-02T12:17:33;101877.13;;;10.42;100.00
55301;BME280;58302;51.446;-2.000;2023-04-02T12:20:18;101870.72;;;10.18;100.00
55301;BME280;58302;51.446;-2.000;2023-04-02T12:22:52;101878.56;;;10.26;100.00
55301;BME280;58302;51.446;-2.000;2023-04-02T12:25:29;101883.91;;;10.14;100.00
55301;BME280;58302;51.446;-2.000;2023-04-02T12:28:22;101883.63;;;9.86;100.00
55301;BME280;58302;51.446;-2.000;2023-04-02T12:30:50;101885.19;;;9.75;100.00
55301;BME280;58302;51.446;-2.000;2023-04-02T12:33:37;101886.34;;;9.86;100.00
55301;BME280;58302;51.446;-2.000;2023-04-02T12:36:06;101890.41;;;9.95;100.00
55301;BME280;58302;51.446;-2.000;2023-04-02T12:38:43;101892.81;;;9.85;100.00
55301;BME280;58302;51.446;-2.000;2023-04-02T12:41:30;101892.06;;;9.96;100.00
55301;BME280;58302;51.446;-2.000;2023-04-02T12:44:10;101886.41;;;10.16;100.00
55301;BME280;58302;51.446;-2.000;2023-04-02T12:46:38;101885.47;;;10.28;100.00
55301;BME280;58302;51.446;-2.000;2023-04-02T12:49:06;101882.50;;;10.12;100.00
55301;BME280;58302;51.446;-2.000;2023-04-02T12:51:34;101898.09;;;9.98;100.00
55301;BME280;58302;51.446;-2.000;2023-04-02T12:54:01;101899.75;;;9.81;100.00
55301;BME280;58302;51.446;-2.000;2023-04-02T12:56:27;101894.16;;;9.75;100.00
55301;BME280;58302;51.446;-2.000;2023-04-02T12:58:58;101881.81;;;9.80;100.00
55301;BME280;58302;51.446;-2.000;2023-04-02T13:01:26;101892.50;;;9.93;100.00
55301;BME280;58302;51.446;-2.000;2023-04-02T13:04:08;101898.41;;;10.08;100.00
55301;BME280;58302;51.446;-2.000;2023-04-02T13:06:40;101892.78;;;10.28;100.00
55301;BME280;58302;51.446;-2.000;2023-04-02T13:09:34;101884.16;;;10.13;100.00
55301;BME280;58302;51.446;-2.000;2023-04-02T13:12:01;101893.72;;;10.15;100.00
55301;BME280;58302;51.446;-2.000;2023-04-02T13:14:27;101889.31;;;9.77;100.00
55301;BME280;58302;51.446;-2.000;2023-04-02T13:16:54;101891.75;;;9.67;100.00
55301;BME280;58302;51.446;-2.000;2023-04-02T13:19:34;101895.81;;;9.76;100.00
55301;BME280;58302;51.446;-2.000;2023-04-02T13:22:02;101892.66;;;9.80;100.00
55301;BME280;58302;51.446;-2.000;2023-04-02T13:24:30;101895.13;;;9.38;100.00
55301;BME280;58302;51.446;-2.000;2023-04-02T13:26:59;101892.69;;;9.55;100.00
55301;BME280;58302;51.446;-2.000;2023-04-02T13:29:28;101886.81;;;9.58;100.00
55301;BME280;58302;51.446;-2.000;2023-04-02T13:31:57;101884.00;;;9.46;100.00
55301;BME280;58302;51.446;-2.000;2023-04-02T13:34:24;101885.28;;;9.43;100.00
55301;BME280;58302;51.446;-2.000;2023-04-02T13:36:50;101891.84;;;9.97;100.00
55301;BME280;58302;51.446;-2.000;2023-04-02T13:39:16;101887.44;;;10.81;100.00
55301;BME280;58302;51.446;-2.000;2023-04-02T13:41:48;101880.09;;;11.24;100.00
55301;BME280;58302;51.446;-2.000;2023-04-02T13:44:24;101877.00;;;11.08;100.00
55301;BME280;58302;51.446;-2.000;2023-04-02T13:46:51;101881.19;;;11.34;100.00
55301;BME280;58302;51.446;-2.000;2023-04-02T13:49:17;101887.94;;;11.44;100.00
55301;BME280;58302;51.446;-2.000;2023-04-02T13:51:46;101886.78;;;11.86;100.00
55301;BME280;58302;51.446;-2.000;2023-04-02T13:56:44;101878.47;;;12.05;100.00
55301;BME280;58302;51.446;-2.000;2023-04-02T13:59:10;101879.41;;;11.75;100.00
55301;BME280;58302;51.446;-2.000;2023-04-02T14:01:36;101885.44;;;12.53;100.00
55301;BME280;58302;51.446;-2.000;2023-04-02T14:04:03;101880.31;;;13.02;100.00
55301;BME280;58302;51.446;-2.000;2023-04-02T14:07:30;101947.97;;;13.28;100.00
55301;BME280;58302;51.446;-2.000;2023-04-02T14:29:45;101927.97;;;12.94;100.00
55301;BME280;58302;51.446;-2.000;2023-04-02T14:32:23;101928.53;;;13.75;100.00
55301;BME280;58302;51.446;-2.000;2023-04-02T14:35:18;101928.00;;;13.11;100.00
55301;BME280;58302;51.446;-2.000;2023-04-02T14:40:39;101926.03;;;11.32;100.00
55301;BME280;58302;51.446;-2.000;2023-04-02T14:43:15;101918.97;;;11.78;100.00
55301;BME280;58302;51.446;-2.000;2023-04-02T14:46:03;101920.91;;;12.41;100.00
55301;BME280;58302;51.446;-2.000;2023-04-02T14:51:26;101888.72;;;13.79;100.00
55301;BME280;58302;51.446;-2.000;2023-04-02T14:59:44;101884.28;;;14.61;100.00
55301;BME280;58302;51.446;-2.000;2023-04-02T15:02:21;101882.69;;;13.43;100.00
55301;BME280;58302;51.446;-2.000;2023-04-02T15:04:56;101889.53;;;12.38;100.00
55301;BME280;58302;51.446;-2.000;2023-04-02T15:07:30;101883.06;;;12.16;100.00
55301;BME280;58302;51.446;-2.000;2023-04-02T15:10:06;101887.63;;;12.39;100.00
55301;BME280;58302;51.446;-2.000;2023-04-02T15:12:35;101870.53;;;12.72;100.00
55301;BME280;58302;51.446;-2.000;2023-04-02T15:15:18;101862.44;;;13.23;100.00
55301;BME280;58302;51.446;-2.000;2023-04-02T15:17:45;101861.81;;;13.71;100.00
55301;BME280;58302;51.446;-2.000;2023-04-02T15:20:14;101856.81;;;14.29;100.00
55301;BME280;58302;51.446;-2.000;2023-04-02T15:23:06;101869.00;;;14.92;100.00
55301;BME280;58302;51.446;-2.000;2023-04-02T15:28:40;101859.88;;;11.90;100.00